createdAt,value
2017-06-29T00:00:46.651Z,3.97
2017-06-29T00:03:15.239Z,3.77
2017-06-29T00:05:43.283Z,3.47
2017-06-29T00:08:11.105Z,3.40
2017-06-29T00:10:40.183Z,3.43
2017-06-29T00:13:08.857Z,3.20
2017-06-29T00:15:37.090Z,3.70
2017-06-29T00:18:05.708Z,3.10
2017-06-29T00:20:34.969Z,4.03
2017-06-29T00:23:03.429Z,3.50
2017-06-29T00:25:31.561Z,3.97
2017-06-29T00:27:59.815Z,4.67
2017-06-29T00:30:28.054Z,3.90
2017-06-29T00:32:56.530Z,3.60
2017-06-29T00:35:24.871Z,6.03
2017-06-29T00:37:52.828Z,3.53
2017-06-29T00:40:21.110Z,3.67
2017-06-29T00:42:49.697Z,4.07
2017-06-29T00:45:18.045Z,3.20
2017-06-29T00:47:46.266Z,3.40
2017-06-29T00:50:14.956Z,3.50
2017-06-29T00:52:43.796Z,4.43
2017-06-29T00:55:12.251Z,3.97
2017-06-29T00:57:41.145Z,3.20
2017-06-29T01:00:10.076Z,4.30
2017-06-29T01:02:39.168Z,5.13
2017-06-29T01:05:07.453Z,4.10
2017-06-29T01:07:36.226Z,3.97
2017-06-29T01:10:04.746Z,3.50
2017-06-29T01:12:33.041Z,4.47
2017-06-29T01:15:01.520Z,4.37
2017-06-29T01:17:29.632Z,4.43
2017-06-29T01:19:57.906Z,4.80
2017-06-29T01:22:26.851Z,3.43
2017-06-29T01:24:58.269Z,5.67
2017-06-29T01:27:26.631Z,4.40
2017-06-29T01:29:55.292Z,3.80
2017-06-29T01:32:23.453Z,3.30
2017-06-29T01:34:52.547Z,3.60
2017-06-29T01:37:21.136Z,3.10
2017-06-29T01:39:49.708Z,4.97
2017-06-29T01:42:18.035Z,3.87
2017-06-29T01:44:46.343Z,3.70
2017-06-29T01:47:14.673Z,5.40
2017-06-29T01:49:43.210Z,3.40
2017-06-29T01:52:11.542Z,3.30
2017-06-29T01:54:40.042Z,5.10
2017-06-29T01:57:08.933Z,3.33
2017-06-29T01:59:37.431Z,4.10
2017-06-29T02:02:05.936Z,3.17
2017-06-29T02:04:35.548Z,6.80
2017-06-29T02:07:04.413Z,3.57
2017-06-29T02:09:33.353Z,3.43
2017-06-29T02:12:01.673Z,3.50
2017-06-29T02:14:30.004Z,5.43
2017-06-29T02:16:58.587Z,3.50
2017-06-29T02:19:27.192Z,3.87
2017-06-29T02:21:55.476Z,3.20
2017-06-29T02:24:23.983Z,5.07
2017-06-29T02:26:52.757Z,3.10
2017-06-29T02:29:20.980Z,3.20
2017-06-29T02:31:49.433Z,3.50
2017-06-29T02:34:18.157Z,3.80
2017-06-29T02:36:46.126Z,3.63
2017-06-29T02:39:14.190Z,5.47
2017-06-29T02:41:43.369Z,6.23
2017-06-29T02:44:11.794Z,6.10
2017-06-29T02:46:39.828Z,5.00
2017-06-29T02:49:08.130Z,6.60
2017-06-29T02:51:36.308Z,4.77
2017-06-29T02:54:04.327Z,2.87
2017-06-29T02:56:32.946Z,4.27
2017-06-29T02:59:00.952Z,2.63
2017-06-29T03:01:29.552Z,2.87
2017-06-29T03:03:57.946Z,5.50
2017-06-29T03:06:26.803Z,3.13
2017-06-29T03:08:55.093Z,4.40
2017-06-29T03:11:23.402Z,3.53
2017-06-29T03:13:51.114Z,3.60
2017-06-29T03:16:19.671Z,4.33
2017-06-29T03:18:48.396Z,4.03
2017-06-29T03:21:16.825Z,4.73
2017-06-29T03:23:45.138Z,4.87
2017-06-29T03:26:13.269Z,6.80
2017-06-29T03:28:41.468Z,4.07
2017-06-29T03:31:09.996Z,4.90
2017-06-29T03:33:38.900Z,4.43
2017-06-29T03:36:06.974Z,7.00
2017-06-29T03:38:34.974Z,8.53
2017-06-29T03:41:03.560Z,6.30
2017-06-29T03:43:31.796Z,6.53
2017-06-29T03:46:00.224Z,5.37
2017-06-29T03:48:28.650Z,5.13
2017-06-29T03:50:56.983Z,5.77
2017-06-29T03:53:25.084Z,5.37
2017-06-29T03:55:53.248Z,7.80
2017-06-29T03:58:21.899Z,5.50
2017-06-29T04:00:50.176Z,5.83
2017-06-29T04:03:18.810Z,6.80
2017-06-29T04:05:46.474Z,6.80
2017-06-29T04:08:15.136Z,8.30
2017-06-29T04:10:43.728Z,6.23
2017-06-29T04:13:12.746Z,8.73
2017-06-29T04:15:40.884Z,7.00
2017-06-29T04:18:09.512Z,5.77
2017-06-29T04:20:37.798Z,7.20
2017-06-29T04:23:07.234Z,7.17
2017-06-29T04:25:38.207Z,8.07
2017-06-29T04:28:06.656Z,7.80
2017-06-29T04:30:35.492Z,8.87
2017-06-29T04:33:03.946Z,13.40
2017-06-29T04:35:32.389Z,9.00
2017-06-29T04:38:01.123Z,8.30
2017-06-29T04:40:29.720Z,7.33
2017-06-29T04:42:57.790Z,7.40
2017-06-29T04:45:26.333Z,7.90
2017-06-29T04:47:54.992Z,7.97
2017-06-29T04:50:22.732Z,8.80
2017-06-29T04:52:50.926Z,7.53
2017-06-29T04:55:19.692Z,7.90
2017-06-29T04:57:47.659Z,5.83
2017-06-29T05:00:15.813Z,7.47
2017-06-29T05:02:43.641Z,6.50
2017-06-29T05:05:12.051Z,8.10
2017-06-29T05:07:39.931Z,6.50
2017-06-29T05:10:08.609Z,7.57
2017-06-29T05:12:37.089Z,6.87
2017-06-29T05:15:05.776Z,7.87
2017-06-29T05:17:33.655Z,7.00
2017-06-29T05:20:01.847Z,6.23
2017-06-29T05:22:29.892Z,6.20
2017-06-29T05:24:58.389Z,6.40
2017-06-29T05:27:27.293Z,6.70
2017-06-29T05:29:57.599Z,8.10
2017-06-29T05:32:28.996Z,8.70
2017-06-29T05:34:59.929Z,6.50
2017-06-29T05:37:31.534Z,6.87
2017-06-29T05:40:03.333Z,6.43
2017-06-29T05:42:34.206Z,6.47
2017-06-29T05:45:05.073Z,7.10
2017-06-29T05:47:34.615Z,6.80
2017-06-29T05:50:03.986Z,7.53
2017-06-29T05:52:32.788Z,7.57
2017-06-29T05:55:00.415Z,5.57
2017-06-29T05:57:28.304Z,6.00
2017-06-29T05:59:55.839Z,8.13
2017-06-29T06:02:23.322Z,6.93
2017-06-29T06:04:50.923Z,4.20
2017-06-29T06:07:18.389Z,5.10
2017-06-29T06:09:46.254Z,4.53
2017-06-29T06:12:13.765Z,4.73
2017-06-29T06:14:41.373Z,4.47
2017-06-29T06:17:08.868Z,5.93
2017-06-29T06:19:37.639Z,4.63
2017-06-29T06:22:05.154Z,6.23
2017-06-29T06:24:33.467Z,3.90
2017-06-29T06:27:00.972Z,4.43
2017-06-29T06:29:28.443Z,6.03
2017-06-29T06:31:55.915Z,3.10
2017-06-29T06:34:23.494Z,4.10
2017-06-29T06:36:50.933Z,4.90
2017-06-29T06:39:18.421Z,3.83
2017-06-29T06:41:45.953Z,4.33
2017-06-29T06:44:13.430Z,5.13
2017-06-29T06:46:40.902Z,6.90
2017-06-29T06:49:08.411Z,5.83
2017-06-29T06:51:36.926Z,7.20
2017-06-29T06:54:04.413Z,4.73
2017-06-29T06:56:31.916Z,4.23
2017-06-29T06:58:59.408Z,4.40
2017-06-29T07:01:26.886Z,6.30
2017-06-29T07:03:54.427Z,5.07
2017-06-29T07:06:22.373Z,4.27
2017-06-29T07:08:49.943Z,4.47
2017-06-29T07:11:17.493Z,6.20
2017-06-29T07:13:44.979Z,4.63
2017-06-29T07:16:12.748Z,7.17
2017-06-29T07:18:40.710Z,4.67
2017-06-29T07:21:08.271Z,7.33
2017-06-29T07:23:35.739Z,9.30
2017-06-29T07:26:03.282Z,6.77
2017-06-29T07:28:30.745Z,4.97
2017-06-29T07:30:58.229Z,4.27
2017-06-29T07:33:25.747Z,4.30
2017-06-29T07:35:53.244Z,6.13
2017-06-29T07:38:20.725Z,3.87
2017-06-29T07:40:48.656Z,3.80
2017-06-29T07:43:16.114Z,4.90
2017-06-29T07:45:43.582Z,3.80
2017-06-29T07:48:11.119Z,3.87
2017-06-29T07:50:38.636Z,6.40
2017-06-29T07:53:06.104Z,3.23
2017-06-29T07:55:33.604Z,3.30
2017-06-29T07:58:01.109Z,3.53
2017-06-29T08:00:28.619Z,5.23
2017-06-29T08:02:56.100Z,3.83
2017-06-29T08:05:25.100Z,6.93
2017-06-29T08:07:52.658Z,4.37
2017-06-29T08:10:20.577Z,5.57
2017-06-29T08:12:48.143Z,5.00
2017-06-29T08:15:15.916Z,6.03
2017-06-29T08:17:43.425Z,5.90
2017-06-29T08:20:10.909Z,5.50
2017-06-29T08:22:38.411Z,5.63
2017-06-29T08:25:05.968Z,6.40
2017-06-29T08:27:33.639Z,8.30
2017-06-29T08:30:01.276Z,7.90
2017-06-29T08:32:28.777Z,7.10
2017-06-29T08:34:56.885Z,6.70
2017-06-29T08:37:24.366Z,6.83
2017-06-29T08:39:51.827Z,8.10
2017-06-29T08:42:19.354Z,8.00
2017-06-29T08:44:47.308Z,10.67
2017-06-29T08:47:16.162Z,7.83
2017-06-29T08:49:43.710Z,8.10
2017-06-29T08:52:11.142Z,10.97
2017-06-29T08:54:39.140Z,8.47
2017-06-29T08:57:06.619Z,8.10
2017-06-29T08:59:34.131Z,8.60
2017-06-29T09:02:01.611Z,9.27
2017-06-29T09:04:29.144Z,8.60
2017-06-29T09:06:56.620Z,10.90
2017-06-29T09:09:24.094Z,8.33
2017-06-29T09:11:51.653Z,9.37
2017-06-29T09:14:19.538Z,8.43
2017-06-29T09:16:47.280Z,8.87
2017-06-29T09:19:15.151Z,8.20
2017-06-29T09:21:43.302Z,11.00
2017-06-29T09:24:11.437Z,9.40
2017-06-29T09:26:38.943Z,8.93
2017-06-29T09:29:06.438Z,9.10
2017-06-29T09:31:34.775Z,12.30
2017-06-29T09:34:02.323Z,9.93
2017-06-29T09:36:30.846Z,7.90
2017-06-29T09:38:58.824Z,8.23
2017-06-29T09:41:26.757Z,7.87
2017-06-29T09:43:54.292Z,9.77
2017-06-29T09:46:21.851Z,9.80
2017-06-29T09:48:49.449Z,8.70
2017-06-29T09:51:16.954Z,9.40
2017-06-29T09:53:44.643Z,7.93
2017-06-29T09:56:12.539Z,7.90
2017-06-29T09:58:40.037Z,8.70
2017-06-29T10:01:07.908Z,8.47
2017-06-29T10:03:35.789Z,10.07
2017-06-29T10:06:03.622Z,12.73
2017-06-29T10:08:31.374Z,7.60
2017-06-29T10:10:58.945Z,10.53
2017-06-29T10:13:26.988Z,8.20
2017-06-29T10:15:54.487Z,8.10
2017-06-29T10:18:21.990Z,7.67
2017-06-29T10:20:49.493Z,8.60
2017-06-29T10:23:17.866Z,8.10
2017-06-29T10:25:46.303Z,12.70
2017-06-29T10:28:14.412Z,9.00
2017-06-29T10:30:42.685Z,7.90
2017-06-29T10:33:10.174Z,7.87
2017-06-29T10:35:38.113Z,8.13
2017-06-29T10:38:05.668Z,6.43
2017-06-29T10:40:33.124Z,8.57
2017-06-29T10:43:01.069Z,6.40
2017-06-29T10:58:20.373Z,5.13
2017-06-29T11:00:47.878Z,5.07
2017-06-29T11:03:16.559Z,4.50
2017-06-29T11:05:44.463Z,5.60
2017-06-29T11:08:12.007Z,6.57
2017-06-29T11:10:39.907Z,5.27
2017-06-29T11:13:07.477Z,4.80
2017-06-29T11:15:35.078Z,6.43
2017-06-29T11:18:02.601Z,5.37
2017-06-29T11:20:30.139Z,3.50
2017-06-29T11:25:47.180Z,4.03
2017-06-29T11:28:14.659Z,6.63
2017-06-29T11:30:42.177Z,4.63
2017-06-29T11:33:10.121Z,3.83
2017-06-29T11:35:37.621Z,7.27
2017-06-29T11:38:05.722Z,5.83
2017-06-29T11:40:33.392Z,5.20
2017-06-29T11:43:01.025Z,4.83
2017-06-29T11:45:28.984Z,5.90
2017-06-29T11:47:57.143Z,5.27
2017-06-29T11:50:25.343Z,7.00
2017-06-29T11:52:53.664Z,5.00
2017-06-29T11:55:22.012Z,5.00
2017-06-29T11:57:50.505Z,4.10
2017-06-29T12:00:18.445Z,4.40
2017-06-29T12:02:47.039Z,3.73
2017-06-29T12:05:14.492Z,4.67
2017-06-29T12:07:43.041Z,3.90
2017-06-29T12:10:10.530Z,4.43
2017-06-29T12:12:38.277Z,3.33
2017-06-29T12:15:06.579Z,4.70
2017-06-29T12:17:35.097Z,3.50
2017-06-29T12:20:02.670Z,2.87
2017-06-29T12:22:31.026Z,5.10
2017-06-29T12:24:58.829Z,3.40
2017-06-29T12:27:27.035Z,5.23
2017-06-29T12:29:55.334Z,3.80
2017-06-29T12:32:23.433Z,3.53
2017-06-29T12:34:50.912Z,3.53
2017-06-29T12:37:19.086Z,3.13
2017-06-29T12:39:46.819Z,2.90
2017-06-29T12:42:14.349Z,3.23
2017-06-29T12:44:42.210Z,2.90
2017-06-29T12:47:11.084Z,3.43
2017-06-29T12:49:39.212Z,3.40
2017-06-29T12:52:06.723Z,3.23
2017-06-29T12:54:34.248Z,2.70
2017-06-29T12:57:01.760Z,3.77
2017-06-29T12:59:29.788Z,3.63
2017-06-29T13:01:57.372Z,2.43
2017-06-29T13:04:24.876Z,2.47
2017-06-29T13:06:52.775Z,2.13
2017-06-29T13:09:20.335Z,2.40
2017-06-29T13:11:48.087Z,3.03
2017-06-29T13:14:16.949Z,2.17
2017-06-29T13:16:44.464Z,5.03
2017-06-29T13:19:12.362Z,2.50
2017-06-29T13:21:39.854Z,1.77
2017-06-29T13:24:07.373Z,3.70
2017-06-29T13:26:35.423Z,1.80
2017-06-29T13:29:03.224Z,2.57
2017-06-29T13:31:30.875Z,1.90
2017-06-29T13:33:58.411Z,4.60
2017-06-29T13:36:26.001Z,2.30
2017-06-29T13:38:53.982Z,7.93
2017-06-29T13:41:21.829Z,2.80
2017-06-29T13:43:49.718Z,1.87
2017-06-29T13:46:17.353Z,3.63
2017-06-29T13:48:45.273Z,2.60
2017-06-29T13:51:12.793Z,2.67
2017-06-29T13:53:40.713Z,2.57
2017-06-29T13:56:08.191Z,2.23
2017-06-29T13:58:35.676Z,3.77
2017-06-29T14:01:03.599Z,1.77
2017-06-29T14:03:31.104Z,4.60
2017-06-29T14:05:58.594Z,3.83
2017-06-29T14:08:26.679Z,2.60
2017-06-29T14:10:54.607Z,1.80
2017-06-29T14:13:22.153Z,3.20
2017-06-29T14:15:49.653Z,1.77
2017-06-29T14:18:17.126Z,3.20
2017-06-29T14:20:44.613Z,1.40
2017-06-29T14:23:12.144Z,1.40
2017-06-29T14:25:39.668Z,2.40
2017-06-29T14:28:07.910Z,1.83
2017-06-29T14:30:36.215Z,1.20
2017-06-29T14:33:03.730Z,3.13
2017-06-29T14:35:31.364Z,1.30
2017-06-29T14:37:58.877Z,2.33
2017-06-29T14:40:26.372Z,2.50
2017-06-29T14:42:53.895Z,2.47
2017-06-29T14:45:21.797Z,0.90
2017-06-29T14:47:49.290Z,1.10
2017-06-29T14:50:16.801Z,1.10
2017-06-29T14:52:45.043Z,1.73
2017-06-29T14:55:12.557Z,2.57
2017-06-29T14:57:40.045Z,1.53
2017-06-29T15:00:07.576Z,2.67
2017-06-29T15:02:35.475Z,4.03
2017-06-29T15:05:02.943Z,1.90
2017-06-29T15:07:30.496Z,4.77
2017-06-29T15:09:58.545Z,2.13
2017-06-29T15:12:26.421Z,1.57
2017-06-29T15:14:53.969Z,3.90
2017-06-29T15:17:21.530Z,5.50
2017-06-29T15:19:49.622Z,2.83
2017-06-29T15:22:17.292Z,4.50
2017-06-29T15:24:45.138Z,4.30
2017-06-29T15:27:13.131Z,3.73
2017-06-29T15:29:41.021Z,2.83
2017-06-29T15:32:08.502Z,3.20
2017-06-29T15:34:36.074Z,6.27
2017-06-29T15:37:03.623Z,1.00
2017-06-29T15:39:31.127Z,5.80
2017-06-29T15:41:58.635Z,3.13
2017-06-29T15:44:26.249Z,5.73
2017-06-29T15:46:53.784Z,6.57
2017-06-29T15:49:21.295Z,3.83
2017-06-29T15:51:48.754Z,3.47
2017-06-29T15:54:16.602Z,1.63
2017-06-29T15:56:44.512Z,1.70
2017-06-29T15:59:11.999Z,1.10
2017-06-29T16:01:39.464Z,3.90
2017-06-29T16:04:06.943Z,2.83
2017-06-29T16:06:34.431Z,1.67
2017-06-29T16:09:01.891Z,2.10
2017-06-29T16:11:29.333Z,2.37
2017-06-29T16:13:56.827Z,1.17
2017-06-29T16:16:24.658Z,2.70
2017-06-29T16:18:53.103Z,1.57
2017-06-29T16:21:20.762Z,2.30
2017-06-29T16:23:48.941Z,4.10
2017-06-29T16:26:17.025Z,4.13
2017-06-29T16:28:44.508Z,4.87
2017-06-29T16:31:11.972Z,3.30
2017-06-29T16:33:39.447Z,2.93
2017-06-29T16:36:07.009Z,2.60
2017-06-29T16:38:34.656Z,2.37
2017-06-29T16:41:02.332Z,4.37
2017-06-29T16:43:30.986Z,2.13
2017-06-29T16:45:58.434Z,1.43
2017-06-29T16:48:25.911Z,4.17
2017-06-29T16:50:53.929Z,2.30
2017-06-29T16:53:21.420Z,1.97
2017-06-29T16:55:48.914Z,1.87
2017-06-29T16:58:16.869Z,1.30
2017-06-29T17:00:44.395Z,2.00
2017-06-29T17:03:11.930Z,1.47
2017-06-29T17:05:39.520Z,0.83
2017-06-29T17:08:08.306Z,0.70
2017-06-29T17:10:35.924Z,1.97
2017-06-29T17:13:03.826Z,1.10
2017-06-29T17:15:31.302Z,1.10
2017-06-29T17:17:58.744Z,2.17
2017-06-29T17:20:26.208Z,0.90
2017-06-29T17:22:53.655Z,2.33
2017-06-29T17:25:21.524Z,1.20
2017-06-29T17:27:49.451Z,1.33
2017-06-29T17:30:16.896Z,1.53
2017-06-29T17:32:44.352Z,2.07
2017-06-29T17:35:11.813Z,1.10
2017-06-29T17:37:39.255Z,2.30
2017-06-29T17:40:06.698Z,1.30
2017-06-29T17:42:34.234Z,2.17
2017-06-29T17:45:01.676Z,2.33
2017-06-29T17:47:29.127Z,2.10
2017-06-29T17:49:56.608Z,5.93
2017-06-29T17:52:24.454Z,2.10
2017-06-29T17:54:51.903Z,1.20
2017-06-29T17:57:19.783Z,2.40
2017-06-29T17:59:47.238Z,2.30
2017-06-29T18:02:14.689Z,1.93
2017-06-29T18:04:42.548Z,2.70
2017-06-29T18:07:11.958Z,1.30
2017-06-29T18:09:39.881Z,1.33
2017-06-29T18:12:08.163Z,1.20
2017-06-29T18:14:35.612Z,1.43
2017-06-29T18:17:03.053Z,1.73
2017-06-29T18:19:30.514Z,2.97
2017-06-29T18:21:57.971Z,1.13
2017-06-29T18:24:25.896Z,1.93
2017-06-29T18:26:53.369Z,1.37
2017-06-29T18:29:20.820Z,1.50
2017-06-29T18:31:48.279Z,2.67
2017-06-29T18:34:15.740Z,0.87
2017-06-29T18:36:43.211Z,1.07
2017-06-29T18:39:11.353Z,1.00
2017-06-29T18:41:39.127Z,1.20
2017-06-29T18:44:06.587Z,1.63
2017-06-29T18:46:34.059Z,4.00
2017-06-29T18:49:01.549Z,2.17
2017-06-29T18:51:29.023Z,1.40
2017-06-29T18:53:56.470Z,2.87
2017-06-29T18:56:24.757Z,1.23
2017-06-29T18:58:52.229Z,2.80
2017-06-29T19:01:19.718Z,0.80
2017-06-29T19:03:47.617Z,1.37
2017-06-29T19:06:15.060Z,1.17
2017-06-29T19:08:42.519Z,1.93
2017-06-29T19:11:10.855Z,1.00
2017-06-29T19:13:38.323Z,1.20
2017-06-29T19:16:05.789Z,2.73
2017-06-29T19:18:33.359Z,2.00
2017-06-29T19:21:00.828Z,2.90
2017-06-29T19:23:28.473Z,1.20
2017-06-29T19:25:55.958Z,2.00
2017-06-29T19:28:23.968Z,2.73
2017-06-29T19:30:52.353Z,1.10
2017-06-29T19:33:19.809Z,1.20
2017-06-29T19:35:47.258Z,1.07
2017-06-29T19:38:14.716Z,3.60
2017-06-29T19:40:42.604Z,0.60
2017-06-29T19:43:10.057Z,0.97
2017-06-29T19:45:38.061Z,3.33
2017-06-29T19:48:05.520Z,1.20
2017-06-29T19:50:32.983Z,6.10
2017-06-29T19:53:00.477Z,2.83
2017-06-29T19:55:27.948Z,4.97
2017-06-29T19:57:55.399Z,1.17
2017-06-29T20:00:22.986Z,0.97
2017-06-29T20:02:50.556Z,3.60
2017-06-29T20:05:18.403Z,3.77
2017-06-29T20:07:45.847Z,0.80
2017-06-29T20:10:13.736Z,1.13
2017-06-29T20:12:41.176Z,2.03
2017-06-29T20:15:08.635Z,2.10
2017-06-29T20:17:36.163Z,0.80
2017-06-29T20:20:03.613Z,2.13
2017-06-29T20:22:31.460Z,1.97
2017-06-29T20:24:58.970Z,1.00
2017-06-29T20:27:26.432Z,1.70
2017-06-29T20:29:53.888Z,2.27
2017-06-29T20:32:21.380Z,2.30
2017-06-29T20:34:48.840Z,1.83
2017-06-29T20:37:16.289Z,1.20
2017-06-29T20:39:43.787Z,3.20
2017-06-29T20:42:11.618Z,1.23
2017-06-29T20:44:39.649Z,0.80
2017-06-29T20:47:07.136Z,0.90
2017-06-29T20:49:35.087Z,1.20
2017-06-29T20:52:02.986Z,3.00
2017-06-29T20:54:30.868Z,1.10
2017-06-29T20:56:58.307Z,1.93
2017-06-29T20:59:26.307Z,1.60
2017-06-29T21:01:53.800Z,1.37
2017-06-29T21:04:21.470Z,1.30
2017-06-29T21:06:48.938Z,2.53
2017-06-29T21:09:16.461Z,1.90
2017-06-29T21:11:43.911Z,0.90
2017-06-29T21:14:11.458Z,1.27
2017-06-29T21:16:39.081Z,2.17
2017-06-29T21:19:06.552Z,1.20
2017-06-29T21:21:34.304Z,1.30
2017-06-29T21:24:01.793Z,2.90
2017-06-29T21:26:29.307Z,2.93
2017-06-29T21:28:56.796Z,3.27
2017-06-29T21:31:24.289Z,1.87
2017-06-29T21:33:51.748Z,1.77
2017-06-29T21:36:19.238Z,1.00
2017-06-29T21:38:47.081Z,1.97
2017-06-29T21:41:14.740Z,1.33
2017-06-29T21:43:42.221Z,1.07
2017-06-29T21:46:09.688Z,0.97
2017-06-29T21:48:37.179Z,1.53
2017-06-29T21:51:04.703Z,1.67
2017-06-29T21:53:32.179Z,2.10
2017-06-29T21:55:59.927Z,2.87
2017-06-29T21:58:27.482Z,5.07
2017-06-29T22:00:54.935Z,3.10
2017-06-29T22:03:23.204Z,1.93
2017-06-29T22:05:50.661Z,1.17
2017-06-29T22:08:18.131Z,1.07
2017-06-29T22:10:45.597Z,1.57
2017-06-29T22:13:13.067Z,2.53
2017-06-29T22:15:40.758Z,1.23
2017-06-29T22:18:08.218Z,1.30
2017-06-29T22:20:35.682Z,3.60
2017-06-29T22:23:03.195Z,1.80
2017-06-29T22:25:30.640Z,1.50
2017-06-29T22:27:58.098Z,2.30
2017-06-29T22:30:25.597Z,1.70
2017-06-29T22:32:53.065Z,3.00
2017-06-29T22:35:20.536Z,2.40
2017-06-29T22:37:48.043Z,1.80
2017-06-29T22:40:16.211Z,2.33
2017-06-29T22:42:44.058Z,1.83
2017-06-29T22:45:11.827Z,1.47
2017-06-29T22:47:39.296Z,1.30
2017-06-29T22:50:06.761Z,4.00
2017-06-29T22:52:34.225Z,1.70
2017-06-29T22:55:02.078Z,2.17
2017-06-29T22:57:30.135Z,4.10
2017-06-29T22:59:57.923Z,2.20
2017-06-29T23:02:25.381Z,1.70
2017-06-29T23:04:52.834Z,2.43
2017-06-29T23:07:20.304Z,3.90
2017-06-29T23:09:47.740Z,2.63
2017-06-29T23:12:15.812Z,2.13
2017-06-29T23:14:43.440Z,2.23
2017-06-29T23:17:11.210Z,3.87
2017-06-29T23:19:39.110Z,3.53
2017-06-29T23:22:06.670Z,1.83
2017-06-29T23:24:34.142Z,3.63
2017-06-29T23:27:01.601Z,1.90
2017-06-29T23:29:29.073Z,3.17
2017-06-29T23:31:56.521Z,1.80
2017-06-29T23:34:23.978Z,2.53
2017-06-29T23:36:51.463Z,1.70
2017-06-29T23:39:19.266Z,3.43
2017-06-29T23:41:46.708Z,2.20
2017-06-29T23:44:14.189Z,6.23
2017-06-29T23:46:41.636Z,2.20
2017-06-29T23:49:09.090Z,2.20
2017-06-29T23:51:37.692Z,3.00
2017-06-29T23:54:05.154Z,2.40
2017-06-29T23:56:32.623Z,2.70
2017-06-29T23:59:00.208Z,2.90
